McIntosh, South Dakota
Current Conditions -  °F | °C
As of 7:52 PM on Saturday 20 Dec 2014 (Local Time) from KMBG Reporting Station
Clear Clear  
Wind Chill: 17°   Ceiling: Unl
Heat Index: 27°   Visibility: 9mi
Dew Point: 24°   Wind: 10mph
Humidity: 89%   Direction: 140°SE
Pressure: 29.82"   Gusts: NA
Location:  45.92°N, 101.35°W
Report Text: KMBG 210252Z AUTO 14009KT 9SM CLR M03/M04 A2982 RMK AO2 SLP121 T10281044 58002
Loading
Personal Weather Stations






























Interactive Weather Map New forecast layout! Learn more

10-Day Weather Forecast

Advertisements
Track Severe Weather on mobile